createdAt,value
2019-05-07T00:02:22.481Z,14.80
2019-05-07T00:04:52.232Z,13.53
2019-05-07T00:07:22.422Z,12.23
2019-05-07T00:09:52.601Z,11.78
2019-05-07T00:12:23.031Z,14.50
2019-05-07T00:15:00.886Z,10.20
2019-05-07T00:17:23.054Z,13.95
2019-05-07T00:19:52.662Z,9.83
2019-05-07T00:22:22.736Z,12.65
2019-05-07T00:24:52.296Z,13.08
2019-05-07T00:27:22.587Z,11.85
2019-05-07T00:29:52.122Z,10.13
2019-05-07T00:32:22.136Z,12.18
2019-05-07T00:34:55.419Z,11.93
2019-05-07T00:37:38.608Z,10.83
2019-05-07T00:40:18.768Z,13.70
2019-05-07T00:43:04.949Z,13.80
2019-05-07T00:45:44.904Z,11.65
2019-05-07T00:48:14.311Z,9.93
2019-05-07T00:50:45.034Z,11.70
2019-05-07T00:53:14.271Z,11.88
2019-05-07T00:55:43.451Z,12.73
2019-05-07T00:58:13.233Z,11.50
2019-05-07T01:00:42.666Z,10.65
2019-05-07T01:03:12.878Z,12.13
2019-05-07T01:05:43.201Z,11.30
2019-05-07T01:08:13.190Z,13.83
2019-05-07T01:10:42.581Z,11.10
2019-05-07T01:13:12.651Z,13.62
2019-05-07T01:15:42.984Z,12.85
2019-05-07T01:18:12.556Z,16.23
2019-05-07T01:20:42.455Z,11.28
2019-05-07T01:23:13.442Z,12.03
2019-05-07T01:25:43.162Z,15.08
2019-05-07T01:28:13.187Z,15.35
2019-05-07T01:30:43.207Z,12.18
2019-05-07T01:33:17.113Z,14.03
2019-05-07T01:35:47.939Z,12.23
2019-05-07T01:38:18.868Z,14.03
2019-05-07T01:40:48.091Z,13.45
2019-05-07T01:43:17.264Z,11.57
2019-05-07T01:45:49.702Z,12.80
2019-05-07T01:48:17.431Z,11.33
2019-05-07T01:50:46.764Z,13.38
2019-05-07T01:53:15.978Z,13.95
2019-05-07T01:55:45.171Z,12.05
2019-05-07T01:58:14.487Z,13.30
2019-05-07T02:00:43.716Z,15.35
2019-05-07T02:03:26.840Z,14.87
2019-05-07T02:05:57.759Z,14.60
2019-05-07T02:08:42.339Z,15.60
2019-05-07T02:11:16.027Z,13.78
2019-05-07T02:13:45.135Z,11.90
2019-05-07T02:16:14.468Z,12.55
2019-05-07T02:18:43.473Z,14.58
2019-05-07T02:21:13.041Z,20.57
2019-05-07T02:23:42.623Z,14.68
2019-05-07T02:26:13.309Z,12.07
2019-05-07T02:28:42.828Z,15.48
2019-05-07T02:31:15.041Z,12.93
2019-05-07T02:33:43.681Z,12.00
2019-05-07T02:36:14.198Z,11.97
2019-05-07T02:38:47.998Z,10.63
2019-05-07T02:41:24.420Z,12.55
2019-05-07T02:43:53.902Z,12.43
2019-05-07T02:46:31.946Z,15.88
2019-05-07T02:49:05.617Z,12.78
2019-05-07T02:51:36.494Z,14.98
2019-05-07T02:54:07.248Z,12.35
2019-05-07T02:56:36.439Z,12.35
2019-05-07T02:59:05.782Z,12.63
2019-05-07T03:01:35.048Z,11.85
2019-05-07T03:04:04.350Z,12.28
2019-05-07T03:06:34.131Z,13.70
2019-05-07T03:09:03.688Z,13.32
2019-05-07T03:11:33.905Z,14.07
2019-05-07T03:14:03.543Z,14.33
2019-05-07T03:16:43.701Z,15.93
2019-05-07T03:19:04.238Z,12.90
2019-05-07T03:21:53.716Z,12.13
2019-05-07T03:24:23.503Z,12.30
2019-05-07T03:26:53.619Z,10.93
2019-05-07T03:29:24.583Z,13.40
2019-05-07T03:32:15.940Z,14.75
2019-05-07T03:34:46.606Z,16.77
2019-05-07T03:37:16.628Z,13.50
2019-05-07T03:39:45.887Z,13.93
2019-05-07T03:42:15.272Z,14.53
2019-05-07T03:45:16.542Z,14.63
2019-05-07T03:47:48.117Z,15.83
2019-05-07T03:50:19.344Z,13.15
2019-05-07T03:53:06.076Z,14.55
2019-05-07T03:55:36.480Z,12.85
2019-05-07T03:58:05.757Z,16.60
2019-05-07T04:00:43.996Z,13.78
2019-05-07T04:03:24.455Z,14.18
2019-05-07T04:05:53.647Z,13.43
2019-05-07T04:08:23.589Z,15.75
2019-05-07T04:10:54.441Z,15.43
2019-05-07T04:13:25.695Z,14.70
2019-05-07T04:15:54.551Z,15.88
2019-05-07T04:18:24.085Z,12.70
2019-05-07T04:20:54.006Z,14.38
2019-05-07T04:23:23.797Z,15.35
2019-05-07T04:25:57.989Z,15.50
2019-05-07T04:28:37.755Z,15.95
2019-05-07T04:31:07.164Z,17.75
2019-05-07T04:33:43.708Z,17.77
2019-05-07T04:36:16.095Z,16.97
2019-05-07T04:38:45.356Z,13.55
2019-05-07T04:41:14.643Z,15.13
2019-05-07T04:43:43.902Z,17.05
2019-05-07T04:46:14.459Z,20.40
2019-05-07T04:48:44.204Z,19.12
2019-05-07T04:51:15.012Z,19.55
2019-05-07T04:53:44.155Z,20.57
2019-05-07T04:56:39.308Z,17.92
2019-05-07T04:59:04.235Z,19.82
2019-05-07T05:01:34.931Z,21.93
2019-05-07T05:04:20.694Z,20.90
2019-05-07T05:06:34.925Z,22.17
2019-05-07T05:09:05.479Z,20.52
2019-05-07T05:11:34.652Z,25.00
2019-05-07T05:14:07.554Z,25.37
2019-05-07T05:16:34.868Z,23.27
2019-05-07T05:19:04.007Z,26.23
2019-05-07T05:21:34.883Z,21.57
2019-05-07T05:24:05.708Z,19.67
2019-05-07T05:26:35.135Z,21.85
2019-05-07T05:29:04.418Z,24.90
2019-05-07T05:31:33.787Z,23.15
2019-05-07T05:34:02.900Z,21.10
2019-05-07T05:36:33.006Z,35.60
2019-05-07T05:39:02.654Z,19.73
2019-05-07T05:41:34.148Z,21.25
2019-05-07T05:44:31.854Z,19.75
2019-05-07T05:47:02.428Z,23.57
2019-05-07T05:49:34.135Z,21.00
2019-05-07T05:52:12.349Z,25.45
2019-05-07T05:54:42.747Z,23.57
2019-05-07T05:57:13.539Z,28.85
2019-05-07T05:59:54.533Z,23.27
2019-05-07T06:02:22.887Z,21.93
2019-05-07T06:04:54.076Z,21.33
2019-05-07T06:07:31.906Z,24.07
2019-05-07T06:10:03.086Z,35.92
2019-05-07T06:12:36.987Z,23.83
2019-05-07T06:15:22.252Z,28.32
2019-05-07T06:18:18.830Z,27.93
2019-05-07T06:20:49.110Z,25.02
2019-05-07T06:23:22.713Z,28.62
2019-05-07T06:25:52.454Z,26.23
2019-05-07T06:28:22.484Z,27.65
2019-05-07T06:30:52.807Z,29.30
2019-05-07T06:33:22.967Z,23.75
2019-05-07T06:35:52.517Z,26.12
2019-05-07T06:38:22.452Z,29.05
2019-05-07T06:41:02.648Z,21.15
2019-05-07T06:43:36.310Z,26.75
2019-05-07T06:46:06.492Z,21.85
2019-05-07T06:48:42.414Z,22.52
2019-05-07T06:51:06.608Z,22.17
2019-05-07T06:53:35.726Z,21.87
2019-05-07T06:56:04.900Z,23.42
2019-05-07T06:58:38.500Z,21.82
2019-05-07T07:01:09.123Z,26.10
2019-05-07T07:03:41.890Z,24.80
2019-05-07T07:06:12.220Z,24.80
2019-05-07T07:09:01.901Z,22.90
2019-05-07T07:11:32.914Z,19.25
2019-05-07T07:14:02.672Z,16.17
2019-05-07T07:16:32.648Z,15.80
2019-05-07T07:19:03.360Z,11.25
2019-05-07T07:21:32.806Z,18.87
2019-05-07T07:24:02.994Z,19.80
2019-05-07T07:26:34.056Z,20.40
2019-05-07T07:29:03.279Z,24.70
2019-05-07T07:31:36.775Z,24.15
2019-05-07T07:34:05.899Z,24.02
2019-05-07T07:36:39.752Z,24.43
2019-05-07T07:39:09.515Z,20.75
2019-05-07T07:41:42.138Z,19.73
2019-05-07T07:44:12.743Z,21.60
2019-05-07T07:46:42.449Z,21.07
2019-05-07T07:49:14.930Z,25.68
2019-05-07T07:51:45.474Z,24.30
2019-05-07T07:54:13.482Z,22.35
2019-05-07T07:56:55.580Z,24.47
2019-05-07T07:59:22.249Z,25.72
2019-05-07T08:01:52.866Z,22.30
2019-05-07T08:04:22.868Z,22.25
2019-05-07T08:07:04.613Z,22.60
2019-05-07T08:09:34.805Z,19.20
2019-05-07T08:12:04.773Z,18.42
2019-05-07T08:14:34.173Z,20.02
2019-05-07T08:17:05.222Z,20.17
2019-05-07T08:19:34.678Z,16.32
2019-05-07T08:22:04.025Z,16.73
2019-05-07T08:24:35.526Z,15.18
2019-05-07T08:27:04.690Z,14.30
2019-05-07T08:29:33.928Z,13.48
2019-05-07T08:32:16.923Z,12.10
2019-05-07T08:34:52.109Z,15.35
2019-05-07T08:37:24.296Z,13.68
2019-05-07T08:39:52.095Z,15.70
2019-05-07T08:42:22.823Z,14.03
2019-05-07T08:44:56.437Z,16.32
2019-05-07T08:47:31.793Z,16.52
2019-05-07T08:50:02.670Z,14.73
2019-05-07T08:52:32.678Z,11.03
2019-05-07T08:55:02.308Z,16.87
2019-05-07T08:57:31.841Z,9.98
2019-05-07T09:00:04.374Z,14.78
2019-05-07T09:02:32.630Z,28.45
2019-05-07T09:05:02.984Z,12.05
2019-05-07T09:07:32.363Z,13.32
2019-05-07T09:10:02.497Z,12.23
2019-05-07T09:12:33.011Z,12.07
2019-05-07T09:15:02.365Z,11.20
2019-05-07T09:17:31.848Z,12.20
2019-05-07T09:20:02.614Z,10.80
2019-05-07T09:22:32.426Z,11.68
2019-05-07T09:25:03.091Z,10.00
2019-05-07T09:27:43.025Z,10.53
2019-05-07T09:30:13.733Z,8.23
2019-05-07T09:32:44.517Z,9.38
2019-05-07T09:35:15.354Z,8.08
2019-05-07T09:37:44.512Z,7.40
2019-05-07T09:40:13.781Z,8.68
2019-05-07T09:42:42.994Z,6.58
2019-05-07T09:45:12.263Z,6.97
2019-05-07T09:47:41.885Z,6.12
2019-05-07T09:50:11.867Z,6.15
2019-05-07T09:52:42.723Z,8.00
2019-05-07T09:55:16.841Z,6.58
2019-05-07T09:57:42.820Z,6.70
2019-05-07T10:00:12.435Z,7.00
2019-05-07T10:02:42.505Z,7.33
2019-05-07T10:05:12.011Z,11.78
2019-05-07T10:07:42.341Z,6.62
2019-05-07T10:10:12.091Z,6.15
2019-05-07T10:12:48.775Z,8.48
2019-05-07T10:15:17.929Z,9.40
2019-05-07T10:17:48.723Z,12.18
2019-05-07T10:20:22.019Z,12.20
2019-05-07T10:22:49.004Z,9.83
2019-05-07T10:25:18.300Z,9.23
2019-05-07T10:27:47.463Z,10.68
2019-05-07T10:30:16.664Z,11.83
2019-05-07T10:32:45.759Z,9.08
2019-05-07T10:35:15.099Z,11.93
2019-05-07T10:37:44.282Z,12.07
2019-05-07T10:40:13.592Z,11.75
2019-05-07T10:42:43.247Z,10.48
2019-05-07T10:45:14.073Z,12.73
2019-05-07T10:47:47.836Z,12.55
2019-05-07T10:50:33.128Z,11.03
2019-05-07T10:52:52.801Z,12.82
2019-05-07T10:55:22.358Z,12.37
2019-05-07T10:57:52.875Z,11.57
2019-05-07T11:00:24.048Z,13.18
2019-05-07T11:02:53.275Z,10.78
2019-05-07T11:05:22.589Z,11.83
2019-05-07T11:07:53.712Z,11.85
2019-05-07T11:10:22.725Z,10.93
2019-05-07T11:12:52.042Z,10.40
2019-05-07T11:15:22.044Z,12.78
2019-05-07T11:17:55.768Z,12.40
2019-05-07T11:20:25.107Z,15.68
2019-05-07T11:22:54.425Z,12.60
2019-05-07T11:25:23.649Z,13.62
2019-05-07T11:27:52.921Z,12.25
2019-05-07T11:30:22.946Z,12.13
2019-05-07T11:32:52.395Z,11.25
2019-05-07T11:35:22.941Z,10.65
2019-05-07T11:37:52.418Z,13.78
2019-05-07T11:40:22.890Z,12.93
2019-05-07T11:42:53.923Z,14.60
2019-05-07T11:45:37.034Z,17.05
2019-05-07T11:48:06.688Z,13.18
2019-05-07T11:51:01.542Z,11.95
2019-05-07T11:53:24.997Z,15.00
2019-05-07T11:55:54.470Z,14.07
2019-05-07T11:58:23.769Z,14.18
2019-05-07T12:00:57.273Z,15.70
2019-05-07T12:03:26.454Z,16.20
2019-05-07T12:05:55.932Z,15.05
2019-05-07T12:08:37.439Z,14.40
2019-05-07T12:10:55.979Z,15.18
2019-05-07T12:13:25.340Z,19.65
2019-05-07T12:15:54.614Z,16.12
2019-05-07T12:18:23.730Z,14.33
2019-05-07T12:20:54.204Z,16.07
2019-05-07T12:23:23.631Z,14.28
2019-05-07T12:25:54.272Z,14.70
2019-05-07T12:28:23.773Z,12.95
2019-05-07T12:31:06.698Z,12.20
2019-05-07T12:33:52.600Z,11.80
2019-05-07T12:36:22.775Z,13.68
2019-05-07T12:38:53.321Z,17.55
2019-05-07T12:41:33.772Z,13.70
2019-05-07T12:44:07.068Z,14.25
2019-05-07T12:46:36.504Z,16.15
2019-05-07T12:49:07.189Z,14.05
2019-05-07T12:51:38.165Z,10.95
2019-05-07T12:54:09.019Z,16.32
2019-05-07T12:56:38.377Z,12.65
2019-05-07T12:59:07.622Z,14.15
2019-05-07T13:01:38.355Z,13.83
2019-05-07T13:04:09.184Z,14.23
2019-05-07T13:06:42.699Z,14.85
2019-05-07T13:09:12.630Z,13.88
2019-05-07T13:11:42.520Z,12.60
2019-05-07T13:14:12.596Z,16.37
2019-05-07T13:16:41.923Z,14.60
2019-05-07T13:19:13.093Z,15.13
2019-05-07T13:21:47.373Z,13.58
2019-05-07T13:24:14.920Z,13.55
2019-05-07T13:26:43.399Z,12.95
2019-05-07T13:29:12.874Z,12.35
2019-05-07T13:31:42.307Z,11.22
2019-05-07T13:34:12.227Z,15.18
2019-05-07T13:36:44.491Z,14.43
2019-05-07T13:39:23.318Z,14.63
2019-05-07T13:42:03.126Z,12.93
2019-05-07T13:44:36.783Z,11.50
2019-05-07T13:47:24.003Z,10.18
2019-05-07T13:49:53.815Z,12.03
2019-05-07T13:52:24.408Z,11.30
2019-05-07T13:54:53.974Z,17.40
2019-05-07T13:57:23.315Z,12.35
2019-05-07T13:59:52.996Z,10.80
2019-05-07T14:02:24.034Z,14.50
2019-05-07T14:04:53.263Z,12.40
2019-05-07T14:07:22.921Z,15.23
2019-05-07T14:09:52.757Z,9.25
2019-05-07T14:12:22.912Z,10.70
2019-05-07T14:14:53.114Z,10.55
2019-05-07T14:17:22.562Z,10.15
2019-05-07T14:19:53.061Z,12.03
2019-05-07T14:22:22.682Z,11.50
2019-05-07T14:24:52.959Z,9.58
2019-05-07T14:27:22.506Z,10.25
2019-05-07T14:29:52.174Z,10.28
2019-05-07T14:32:23.313Z,14.03
2019-05-07T14:35:01.964Z,12.35
2019-05-07T14:37:35.055Z,11.08
2019-05-07T14:40:05.515Z,8.63
2019-05-07T14:42:45.564Z,10.93
2019-05-07T14:45:15.056Z,9.58
2019-05-07T14:47:44.709Z,7.70
2019-05-07T14:50:14.176Z,8.78
2019-05-07T14:52:43.490Z,9.48
2019-05-07T14:55:12.984Z,11.22
2019-05-07T14:57:42.463Z,11.15
2019-05-07T15:00:12.347Z,8.73
2019-05-07T15:02:42.215Z,9.63
2019-05-07T15:05:11.985Z,10.90
2019-05-07T15:07:41.418Z,11.48
2019-05-07T15:10:10.711Z,12.35
2019-05-07T15:12:39.928Z,8.18
2019-05-07T15:15:09.641Z,10.65
2019-05-07T15:17:43.318Z,8.65
2019-05-07T15:20:12.553Z,9.13
2019-05-07T15:22:58.619Z,10.43
2019-05-07T15:25:28.000Z,10.88
2019-05-07T15:27:57.263Z,8.50
2019-05-07T15:30:27.955Z,8.58
2019-05-07T15:32:57.222Z,8.45
2019-05-07T15:35:26.271Z,11.65
2019-05-07T15:37:55.777Z,8.70
2019-05-07T15:40:24.944Z,10.00
2019-05-07T15:42:54.087Z,10.30
2019-05-07T15:45:23.422Z,9.53
2019-05-07T15:47:54.300Z,8.05
2019-05-07T15:50:24.941Z,7.55
2019-05-07T15:52:58.961Z,9.10
2019-05-07T15:55:42.569Z,8.18
2019-05-07T15:58:12.141Z,7.35
2019-05-07T16:00:42.552Z,9.70
2019-05-07T16:03:13.508Z,8.95
2019-05-07T16:05:42.810Z,8.75
2019-05-07T16:08:13.569Z,6.55
2019-05-07T16:10:42.967Z,9.48
2019-05-07T16:13:13.750Z,7.87
2019-05-07T16:15:42.869Z,9.85
2019-05-07T16:18:16.432Z,6.72
2019-05-07T16:20:45.743Z,7.47
2019-05-07T16:23:18.051Z,9.08
2019-05-07T16:25:45.873Z,11.68
2019-05-07T16:28:15.201Z,8.08
2019-05-07T16:30:44.304Z,7.25
2019-05-07T16:33:13.566Z,8.33
2019-05-07T16:35:42.871Z,7.97
2019-05-07T16:38:14.496Z,8.45
2019-05-07T16:40:43.037Z,10.95
2019-05-07T16:43:12.240Z,9.63
2019-05-07T16:45:42.426Z,9.05
2019-05-07T16:48:12.054Z,11.33
2019-05-07T16:50:41.320Z,8.18
2019-05-07T16:53:13.413Z,6.83
2019-05-07T16:55:42.983Z,12.10
2019-05-07T16:58:13.606Z,7.35
2019-05-07T17:00:46.934Z,7.83
2019-05-07T17:03:17.728Z,9.40
2019-05-07T17:05:46.939Z,7.75
2019-05-07T17:08:17.701Z,6.22
2019-05-07T17:10:47.205Z,9.55
2019-05-07T17:13:16.651Z,9.03
2019-05-07T17:15:56.099Z,7.55
2019-05-07T17:18:26.091Z,6.55
2019-05-07T17:20:55.688Z,10.13
2019-05-07T17:23:24.857Z,8.20
2019-05-07T17:25:54.124Z,7.87
2019-05-07T17:28:23.334Z,7.53
2019-05-07T17:30:52.632Z,8.05
2019-05-07T17:33:23.025Z,7.30
2019-05-07T17:35:52.390Z,8.93
2019-05-07T17:38:23.113Z,7.80
2019-05-07T17:40:52.580Z,6.33
2019-05-07T17:43:22.138Z,9.53
2019-05-07T17:45:52.281Z,8.90
2019-05-07T17:48:23.234Z,9.80
2019-05-07T17:50:54.208Z,8.83
2019-05-07T17:53:23.597Z,7.17
2019-05-07T17:55:53.828Z,9.13
2019-05-07T17:58:23.457Z,9.28
2019-05-07T18:00:56.280Z,7.53
2019-05-07T18:03:32.993Z,9.30
2019-05-07T18:06:02.631Z,7.92
2019-05-07T18:08:32.942Z,8.10
2019-05-07T18:11:02.551Z,9.05
2019-05-07T18:13:32.450Z,10.80
2019-05-07T18:16:06.216Z,11.05
2019-05-07T18:18:35.486Z,9.60
2019-05-07T18:21:05.252Z,12.13
2019-05-07T18:23:34.918Z,7.75
2019-05-07T18:26:04.372Z,8.53
2019-05-07T18:28:34.926Z,9.53
2019-05-07T18:31:06.075Z,9.53
2019-05-07T18:33:41.771Z,10.75
2019-05-07T18:36:12.140Z,7.97
2019-05-07T18:38:42.360Z,9.75
2019-05-07T18:41:12.513Z,7.20
2019-05-07T18:43:43.710Z,6.00
2019-05-07T18:46:15.279Z,6.22
2019-05-07T18:48:51.820Z,5.65
2019-05-07T18:51:21.610Z,4.17
2019-05-07T18:53:51.929Z,8.03
2019-05-07T18:56:22.107Z,6.45
2019-05-07T18:58:59.166Z,5.62
2019-05-07T19:01:32.605Z,5.15
2019-05-07T19:04:02.077Z,6.62
2019-05-07T19:06:32.123Z,8.70
2019-05-07T19:09:03.696Z,3.72
2019-05-07T19:11:35.873Z,8.25
2019-05-07T19:14:09.766Z,3.90
2019-05-07T19:16:43.105Z,7.15
2019-05-07T19:19:17.327Z,4.22
2019-05-07T19:22:02.094Z,7.90
2019-05-07T19:24:44.186Z,7.30
2019-05-07T19:27:12.387Z,6.05
2019-05-07T19:29:46.567Z,4.33
2019-05-07T19:32:22.844Z,7.30
2019-05-07T19:34:56.588Z,6.47
2019-05-07T19:40:02.987Z,7.37
2019-05-07T19:42:37.687Z,7.17
2019-05-07T19:45:17.670Z,7.00
2019-05-07T19:47:49.672Z,7.47
2019-05-07T19:50:24.324Z,4.92
2019-05-07T19:52:56.580Z,7.75
2019-05-07T19:55:32.865Z,6.75
2019-05-07T19:58:07.531Z,4.08
2019-05-07T20:00:41.836Z,5.97
2019-05-07T20:03:49.964Z,9.15
2019-05-07T20:06:23.220Z,5.85
2019-05-07T20:08:53.062Z,7.28
2019-05-07T20:11:28.721Z,7.50
2019-05-07T20:13:58.774Z,7.05
2019-05-07T20:16:32.921Z,8.48
2019-05-07T20:21:37.114Z,7.70
2019-05-07T20:24:12.289Z,6.00
2019-05-07T20:26:43.734Z,6.42
2019-05-07T20:29:13.965Z,8.33
2019-05-07T20:31:45.303Z,13.03
2019-05-07T20:34:15.765Z,12.60
2019-05-07T20:36:48.411Z,6.97
2019-05-07T20:39:19.680Z,9.80
2019-05-07T20:41:52.663Z,6.75
2019-05-07T20:44:24.311Z,10.37
2019-05-07T20:46:57.461Z,9.03
2019-05-07T20:49:28.356Z,7.22
2019-05-07T20:52:01.672Z,7.25
2019-05-07T20:54:38.994Z,6.45
2019-05-07T20:57:14.327Z,6.08
2019-05-07T20:59:45.508Z,7.03
2019-05-07T21:02:15.094Z,6.87
2019-05-07T21:04:44.615Z,6.80
2019-05-07T21:07:13.818Z,9.08
2019-05-07T21:09:43.203Z,6.53
2019-05-07T21:12:12.979Z,5.42
2019-05-07T21:14:42.261Z,7.92
2019-05-07T21:17:11.937Z,7.92
2019-05-07T21:19:42.826Z,10.88
2019-05-07T21:22:13.053Z,6.97
2019-05-07T21:24:42.416Z,7.45
2019-05-07T21:27:12.316Z,9.38
2019-05-07T21:29:42.227Z,9.10
2019-05-07T21:32:12.378Z,9.13
2019-05-07T21:34:42.254Z,9.20
2019-05-07T21:37:12.609Z,12.35
2019-05-07T21:39:42.490Z,10.95
2019-05-07T21:42:14.191Z,8.80
2019-05-07T21:44:43.045Z,10.08
2019-05-07T21:47:12.763Z,8.73
2019-05-07T21:49:43.070Z,8.43
2019-05-07T21:52:12.813Z,6.78
2019-05-07T21:54:46.583Z,12.15
2019-05-07T21:57:26.195Z,8.58
2019-05-07T22:00:02.612Z,10.13
2019-05-07T22:02:32.786Z,11.88
2019-05-07T22:05:02.633Z,10.68
2019-05-07T22:07:32.016Z,9.33
2019-05-07T22:10:02.203Z,9.90
2019-05-07T22:12:31.982Z,10.43
2019-05-07T22:15:04.298Z,11.33
2019-05-07T22:17:31.983Z,9.48
2019-05-07T22:20:03.070Z,9.48
2019-05-07T22:22:32.115Z,9.05
2019-05-07T22:25:04.983Z,13.98
2019-05-07T22:27:32.731Z,11.15
2019-05-07T22:30:02.343Z,11.48
2019-05-07T22:32:33.003Z,13.03
2019-05-07T22:35:03.750Z,10.75
2019-05-07T22:37:33.112Z,12.58
2019-05-07T22:40:02.812Z,10.58
2019-05-07T22:42:32.727Z,10.78
2019-05-07T22:45:02.785Z,8.33
2019-05-07T22:47:32.649Z,10.50
2019-05-07T22:50:02.818Z,13.22
2019-05-07T22:52:32.654Z,9.80
2019-05-07T22:55:01.933Z,9.25
2019-05-07T22:57:35.708Z,10.98
2019-05-07T23:00:12.234Z,9.38
2019-05-07T23:02:42.771Z,11.65
2019-05-07T23:05:12.271Z,9.98
2019-05-07T23:07:41.775Z,11.03
2019-05-07T23:10:12.202Z,8.53
2019-05-07T23:12:41.511Z,11.65
2019-05-07T23:15:11.957Z,10.93
2019-05-07T23:17:41.202Z,11.53
2019-05-07T23:20:10.415Z,11.20
2019-05-07T23:22:39.652Z,8.13
2019-05-07T23:25:08.907Z,11.65
2019-05-07T23:27:38.172Z,10.40
2019-05-07T23:30:07.423Z,9.88
2019-05-07T23:32:36.713Z,8.25
2019-05-07T23:35:05.986Z,8.00
2019-05-07T23:37:35.115Z,8.63
2019-05-07T23:40:07.330Z,6.40
2019-05-07T23:42:37.940Z,7.67
2019-05-07T23:45:07.876Z,7.85
2019-05-07T23:47:37.130Z,8.13
2019-05-07T23:50:07.419Z,9.93
2019-05-07T23:52:36.603Z,8.93
2019-05-07T23:55:05.844Z,7.45
2019-05-07T23:57:35.103Z,8.08
